sensor_id;sensor_type;location;lat;lon;timestamp;pressure;altitude;pressure_sealevel;temperature;humidity
52855;BME280;38719;51.418;7.286;2023-04-28T00:00:38;99598.00;;;10.46;51.47
52855;BME280;38719;51.418;7.286;2023-04-28T00:03:07;99593.75;;;10.42;51.05
52855;BME280;38719;51.418;7.286;2023-04-28T00:05:36;99595.19;;;10.49;51.07
52855;BME280;38719;51.418;7.286;2023-04-28T00:08:05;99600.44;;;10.14;53.02
52855;BME280;38719;51.418;7.286;2023-04-28T00:10:32;99595.97;;;10.32;55.66
52855;BME280;38719;51.418;7.286;2023-04-28T00:13:00;99590.16;;;10.60;53.53
52855;BME280;38719;51.418;7.286;2023-04-28T00:15:27;99590.88;;;10.64;53.95
52855;BME280;38719;51.418;7.286;2023-04-28T00:17:54;99589.41;;;10.58;55.64
52855;BME280;38719;51.418;7.286;2023-04-28T00:20:22;99580.00;;;10.51;55.49
52855;BME280;38719;51.418;7.286;2023-04-28T00:22:49;99574.81;;;10.48;57.46
52855;BME280;38719;51.418;7.286;2023-04-28T00:25:18;99573.84;;;10.31;57.96
52855;BME280;38719;51.418;7.286;2023-04-28T00:27:46;99565.94;;;10.30;56.45
52855;BME280;38719;51.418;7.286;2023-04-28T00:30:13;99559.59;;;10.32;56.12
52855;BME280;38719;51.418;7.286;2023-04-28T00:32:41;99547.34;;;10.47;56.37
52855;BME280;38719;51.418;7.286;2023-04-28T00:35:08;99557.75;;;10.52;57.04
52855;BME280;38719;51.418;7.286;2023-04-28T00:37:36;99551.84;;;10.28;58.47
52855;BME280;38719;51.418;7.286;2023-04-28T00:40:05;99550.09;;;10.09;61.01
52855;BME280;38719;51.418;7.286;2023-04-28T00:42:34;99550.16;;;9.71;62.20
52855;BME280;38719;51.418;7.286;2023-04-28T00:45:01;99545.94;;;9.67;63.42
52855;BME280;38719;51.418;7.286;2023-04-28T00:47:31;99533.28;;;10.26;61.66
52855;BME280;38719;51.418;7.286;2023-04-28T00:50:00;99530.78;;;10.76;59.90
52855;BME280;38719;51.418;7.286;2023-04-28T00:52:28;99528.44;;;10.87;60.38
52855;BME280;38719;51.418;7.286;2023-04-28T00:54:56;99515.41;;;11.15;60.28
52855;BME280;38719;51.418;7.286;2023-04-28T00:57:23;99517.97;;;11.50;59.64
52855;BME280;38719;51.418;7.286;2023-04-28T00:59:52;99520.88;;;11.29;61.60
52855;BME280;38719;51.418;7.286;2023-04-28T01:02:20;99519.31;;;11.41;61.82
52855;BME280;38719;51.418;7.286;2023-04-28T01:04:48;99523.13;;;11.53;60.39
52855;BME280;38719;51.418;7.286;2023-04-28T01:07:16;99519.84;;;11.48;62.24
52855;BME280;38719;51.418;7.286;2023-04-28T01:09:44;99516.59;;;11.58;62.85
52855;BME280;38719;51.418;7.286;2023-04-28T01:12:13;99520.53;;;11.67;61.66
52855;BME280;38719;51.418;7.286;2023-04-28T01:14:41;99511.91;;;11.78;61.81
52855;BME280;38719;51.418;7.286;2023-04-28T01:17:10;99511.41;;;11.87;60.25
52855;BME280;38719;51.418;7.286;2023-04-28T01:19:38;99510.81;;;11.98;59.88
52855;BME280;38719;51.418;7.286;2023-04-28T01:22:06;99512.78;;;11.78;60.46
52855;BME280;38719;51.418;7.286;2023-04-28T01:24:37;99507.59;;;11.91;61.07
52855;BME280;38719;51.418;7.286;2023-04-28T01:27:04;99512.88;;;11.77;62.07
52855;BME280;38719;51.418;7.286;2023-04-28T01:29:31;99509.22;;;11.94;61.09
52855;BME280;38719;51.418;7.286;2023-04-28T01:31:59;99505.56;;;11.97;60.99
52855;BME280;38719;51.418;7.286;2023-04-28T01:34:27;99503.03;;;11.93;62.33
52855;BME280;38719;51.418;7.286;2023-04-28T01:36:54;99509.16;;;11.96;61.83
52855;BME280;38719;51.418;7.286;2023-04-28T01:39:22;99503.38;;;11.87;63.13
52855;BME280;38719;51.418;7.286;2023-04-28T01:41:51;99509.19;;;11.64;65.23
52855;BME280;38719;51.418;7.286;2023-04-28T01:44:18;99511.31;;;11.41;66.49
52855;BME280;38719;51.418;7.286;2023-04-28T01:46:45;99499.16;;;11.03;67.38
52855;BME280;38719;51.418;7.286;2023-04-28T01:49:13;99502.47;;;10.57;70.95
52855;BME280;38719;51.418;7.286;2023-04-28T01:51:41;99497.59;;;10.48;72.11
52855;BME280;38719;51.418;7.286;2023-04-28T01:54:08;99505.66;;;10.82;72.26
52855;BME280;38719;51.418;7.286;2023-04-28T01:56:36;99499.28;;;11.34;69.07
52855;BME280;38719;51.418;7.286;2023-04-28T01:59:05;99501.19;;;11.32;68.54
52855;BME280;38719;51.418;7.286;2023-04-28T02:01:32;99496.09;;;11.43;67.91
52855;BME280;38719;51.418;7.286;2023-04-28T02:04:00;99483.56;;;11.45;67.25
52855;BME280;38719;51.418;7.286;2023-04-28T02:06:27;99486.47;;;11.56;66.34
52855;BME280;38719;51.418;7.286;2023-04-28T02:08:55;99484.75;;;11.55;66.18
52855;BME280;38719;51.418;7.286;2023-04-28T02:11:22;99479.31;;;11.57;65.94
52855;BME280;38719;51.418;7.286;2023-04-28T02:13:50;99496.78;;;11.63;65.77
52855;BME280;38719;51.418;7.286;2023-04-28T02:16:19;99496.53;;;11.67;66.04
52855;BME280;38719;51.418;7.286;2023-04-28T02:18:46;99497.28;;;11.85;65.40
52855;BME280;38719;51.418;7.286;2023-04-28T02:21:14;99496.00;;;11.76;66.90
52855;BME280;38719;51.418;7.286;2023-04-28T02:23:41;99495.22;;;11.90;66.01
52855;BME280;38719;51.418;7.286;2023-04-28T02:26:09;99494.09;;;11.78;66.73
52855;BME280;38719;51.418;7.286;2023-04-28T02:28:36;99482.91;;;11.72;68.03
52855;BME280;38719;51.418;7.286;2023-04-28T02:31:05;99478.47;;;11.72;67.64
52855;BME280;38719;51.418;7.286;2023-04-28T02:33:34;99477.44;;;11.43;68.12
52855;BME280;38719;51.418;7.286;2023-04-28T02:36:03;99471.94;;;11.46;68.38
52855;BME280;38719;51.418;7.286;2023-04-28T02:38:30;99469.44;;;11.43;68.82
52855;BME280;38719;51.418;7.286;2023-04-28T02:40:58;99467.22;;;11.35;69.01
52855;BME280;38719;51.418;7.286;2023-04-28T02:43:26;99466.19;;;11.38;69.53
52855;BME280;38719;51.418;7.286;2023-04-28T02:45:53;99455.84;;;11.32;69.52
52855;BME280;38719;51.418;7.286;2023-04-28T02:48:21;99458.44;;;11.33;69.37
52855;BME280;38719;51.418;7.286;2023-04-28T02:50:50;99463.59;;;11.36;69.74
52855;BME280;38719;51.418;7.286;2023-04-28T02:53:18;99462.66;;;11.21;70.55
52855;BME280;38719;51.418;7.286;2023-04-28T02:55:46;99469.09;;;11.33;69.90
52855;BME280;38719;51.418;7.286;2023-04-28T02:58:13;99464.28;;;11.40;70.62
52855;BME280;38719;51.418;7.286;2023-04-28T03:00:41;99462.22;;;11.45;69.34
52855;BME280;38719;51.418;7.286;2023-04-28T03:03:08;99466.44;;;11.33;70.89
52855;BME280;38719;51.418;7.286;2023-04-28T03:05:36;99462.47;;;11.56;69.34
52855;BME280;38719;51.418;7.286;2023-04-28T03:08:05;99457.13;;;11.56;69.59
52855;BME280;38719;51.418;7.286;2023-04-28T03:10:33;99460.13;;;11.66;69.59
52855;BME280;38719;51.418;7.286;2023-04-28T03:13:00;99464.78;;;11.63;69.06
52855;BME280;38719;51.418;7.286;2023-04-28T03:15:28;99457.03;;;11.58;70.08
52855;BME280;38719;51.418;7.286;2023-04-28T03:17:55;99458.28;;;11.52;70.24
52855;BME280;38719;51.418;7.286;2023-04-28T03:20:23;99455.84;;;11.64;69.41
52855;BME280;38719;51.418;7.286;2023-04-28T03:22:50;99448.44;;;11.69;69.00
52855;BME280;38719;51.418;7.286;2023-04-28T03:25:19;99446.72;;;11.68;69.27
52855;BME280;38719;51.418;7.286;2023-04-28T03:27:47;99444.94;;;11.52;70.59
52855;BME280;38719;51.418;7.286;2023-04-28T03:30:14;99450.84;;;11.73;68.80
52855;BME280;38719;51.418;7.286;2023-04-28T03:32:42;99442.31;;;11.67;69.22
52855;BME280;38719;51.418;7.286;2023-04-28T03:35:09;99428.69;;;11.87;68.95
52855;BME280;38719;51.418;7.286;2023-04-28T03:37:37;99429.81;;;11.83;68.93
52855;BME280;38719;51.418;7.286;2023-04-28T03:40:06;99435.16;;;11.83;68.51
52855;BME280;38719;51.418;7.286;2023-04-28T03:42:35;99428.81;;;11.70;69.23
52855;BME280;38719;51.418;7.286;2023-04-28T03:45:03;99429.03;;;11.81;68.88
52855;BME280;38719;51.418;7.286;2023-04-28T03:47:30;99416.03;;;11.91;67.94
52855;BME280;38719;51.418;7.286;2023-04-28T03:49:58;99415.03;;;11.77;68.23
52855;BME280;38719;51.418;7.286;2023-04-28T03:52:25;99415.28;;;11.73;68.02
52855;BME280;38719;51.418;7.286;2023-04-28T03:54:53;99409.09;;;11.72;68.38
52855;BME280;38719;51.418;7.286;2023-04-28T03:57:20;99412.03;;;11.68;68.20
52855;BME280;38719;51.418;7.286;2023-04-28T03:59:49;99402.91;;;11.72;67.88
52855;BME280;38719;51.418;7.286;2023-04-28T04:02:17;99391.16;;;11.60;68.10
52855;BME280;38719;51.418;7.286;2023-04-28T04:04:45;99400.78;;;11.63;67.92
52855;BME280;38719;51.418;7.286;2023-04-28T04:07:12;99393.13;;;11.56;68.48
52855;BME280;38719;51.418;7.286;2023-04-28T04:09:40;99386.63;;;11.46;69.25
52855;BME280;38719;51.418;7.286;2023-04-28T04:12:07;99387.22;;;11.51;68.67
52855;BME280;38719;51.418;7.286;2023-04-28T04:14:35;99386.88;;;11.41;68.99
52855;BME280;38719;51.418;7.286;2023-04-28T04:17:04;99377.66;;;11.47;69.10
52855;BME280;38719;51.418;7.286;2023-04-28T04:19:31;99375.53;;;11.38;70.31
52855;BME280;38719;51.418;7.286;2023-04-28T04:21:59;99373.31;;;11.30;69.83
52855;BME280;38719;51.418;7.286;2023-04-28T04:24:26;99376.84;;;11.31;70.08
52855;BME280;38719;51.418;7.286;2023-04-28T04:26:53;99366.63;;;11.07;70.76
52855;BME280;38719;51.418;7.286;2023-04-28T04:29:21;99360.06;;;11.28;70.40
52855;BME280;38719;51.418;7.286;2023-04-28T04:31:48;99352.41;;;11.38;70.85
52855;BME280;38719;51.418;7.286;2023-04-28T04:34:17;99358.19;;;11.31;71.43
52855;BME280;38719;51.418;7.286;2023-04-28T04:36:45;99354.44;;;11.19;71.90
52855;BME280;38719;51.418;7.286;2023-04-28T04:39:12;99352.50;;;11.21;71.67
52855;BME280;38719;51.418;7.286;2023-04-28T04:41:40;99348.75;;;11.25;71.95
52855;BME280;38719;51.418;7.286;2023-04-28T04:44:07;99341.84;;;11.21;71.94
52855;BME280;38719;51.418;7.286;2023-04-28T04:46:35;99340.28;;;11.33;71.56
52855;BME280;38719;51.418;7.286;2023-04-28T04:49:02;99353.03;;;11.27;71.40
52855;BME280;38719;51.418;7.286;2023-04-28T04:51:31;99350.63;;;11.23;72.13
52855;BME280;38719;51.418;7.286;2023-04-28T04:53:59;99355.28;;;11.19;72.24
52855;BME280;38719;51.418;7.286;2023-04-28T04:56:26;99359.91;;;11.32;71.50
52855;BME280;38719;51.418;7.286;2023-04-28T04:58:53;99359.19;;;11.44;71.51
52855;BME280;38719;51.418;7.286;2023-04-28T05:01:21;99364.88;;;11.38;70.85
52855;BME280;38719;51.418;7.286;2023-04-28T05:03:49;99374.50;;;11.40;71.77
52855;BME280;38719;51.418;7.286;2023-04-28T05:06:16;99379.44;;;11.63;70.99
52855;BME280;38719;51.418;7.286;2023-04-28T05:08:45;99389.72;;;11.85;69.56
52855;BME280;38719;51.418;7.286;2023-04-28T05:11:13;99389.09;;;11.96;69.43
52855;BME280;38719;51.418;7.286;2023-04-28T05:13:41;99387.72;;;11.88;70.12
52855;BME280;38719;51.418;7.286;2023-04-28T05:16:08;99375.66;;;11.97;70.38
52855;BME280;38719;51.418;7.286;2023-04-28T05:18:36;99369.50;;;12.11;69.34
52855;BME280;38719;51.418;7.286;2023-04-28T05:21:03;99373.47;;;12.04;70.01
52855;BME280;38719;51.418;7.286;2023-04-28T05:23:31;99370.75;;;12.05;70.89
52855;BME280;38719;51.418;7.286;2023-04-28T05:26:00;99370.84;;;12.18;70.95
52855;BME280;38719;51.418;7.286;2023-04-28T05:28:29;99365.13;;;12.24;70.69
52855;BME280;38719;51.418;7.286;2023-04-28T05:30:56;99370.38;;;12.12;70.76
52855;BME280;38719;51.418;7.286;2023-04-28T05:33:24;99363.19;;;11.98;71.31
52855;BME280;38719;51.418;7.286;2023-04-28T05:35:51;99354.09;;;11.86;71.86
52855;BME280;38719;51.418;7.286;2023-04-28T05:38:19;99348.06;;;11.82;72.44
52855;BME280;38719;51.418;7.286;2023-04-28T05:40:48;99349.56;;;11.72;72.86
52855;BME280;38719;51.418;7.286;2023-04-28T05:43:17;99349.56;;;11.72;72.44
52855;BME280;38719;51.418;7.286;2023-04-28T05:45:45;99336.59;;;11.66;73.38
52855;BME280;38719;51.418;7.286;2023-04-28T05:48:12;99338.13;;;11.70;72.78
52855;BME280;38719;51.418;7.286;2023-04-28T05:50:40;99325.38;;;11.75;73.05
52855;BME280;38719;51.418;7.286;2023-04-28T05:53:07;99324.22;;;11.65;73.23
52855;BME280;38719;51.418;7.286;2023-04-28T05:55:35;99309.34;;;11.60;73.90
52855;BME280;38719;51.418;7.286;2023-04-28T05:58:03;99313.13;;;11.56;74.82
52855;BME280;38719;51.418;7.286;2023-04-28T06:00:32;99317.91;;;11.66;74.40
52855;BME280;38719;51.418;7.286;2023-04-28T06:03:00;99313.13;;;11.56;75.23
52855;BME280;38719;51.418;7.286;2023-04-28T06:05:27;99305.81;;;11.60;74.38
52855;BME280;38719;51.418;7.286;2023-04-28T06:07:55;99310.09;;;11.63;73.85
52855;BME280;38719;51.418;7.286;2023-04-28T06:10:25;99319.72;;;11.65;74.29
52855;BME280;38719;51.418;7.286;2023-04-28T06:12:52;99315.97;;;11.53;74.44
52855;BME280;38719;51.418;7.286;2023-04-28T06:15:20;99325.34;;;11.60;74.05
52855;BME280;38719;51.418;7.286;2023-04-28T06:17:49;99314.59;;;11.76;74.72
52855;BME280;38719;51.418;7.286;2023-04-28T06:20:16;99316.47;;;11.90;73.72
52855;BME280;38719;51.418;7.286;2023-04-28T06:22:44;99314.03;;;12.02;74.12
52855;BME280;38719;51.418;7.286;2023-04-28T06:25:12;99319.44;;;12.00;73.02
52855;BME280;38719;51.418;7.286;2023-04-28T06:27:39;99321.16;;;12.01;73.65
52855;BME280;38719;51.418;7.286;2023-04-28T06:30:08;99317.47;;;12.18;73.71
52855;BME280;38719;51.418;7.286;2023-04-28T06:32:35;99312.47;;;12.41;72.17
52855;BME280;38719;51.418;7.286;2023-04-28T06:35:06;99315.16;;;12.41;72.65
52855;BME280;38719;51.418;7.286;2023-04-28T06:37:34;99319.75;;;12.24;72.95
52855;BME280;38719;51.418;7.286;2023-04-28T06:40:01;99314.97;;;12.30;73.29
52855;BME280;38719;51.418;7.286;2023-04-28T06:42:29;99303.41;;;12.44;73.64
52855;BME280;38719;51.418;7.286;2023-04-28T06:44:56;99286.69;;;12.83;71.95
52855;BME280;38719;51.418;7.286;2023-04-28T06:47:24;99287.63;;;12.82;72.10
52855;BME280;38719;51.418;7.286;2023-04-28T06:49:52;99284.22;;;12.93;72.25
52855;BME280;38719;51.418;7.286;2023-04-28T06:52:22;99284.84;;;13.11;72.63
52855;BME280;38719;51.418;7.286;2023-04-28T06:55:04;99286.34;;;13.15;71.91
52855;BME280;38719;51.418;7.286;2023-04-28T06:57:32;99289.84;;;13.30;70.88
52855;BME280;38719;51.418;7.286;2023-04-28T07:00:00;99293.13;;;13.48;71.16
52855;BME280;38719;51.418;7.286;2023-04-28T07:02:27;99299.88;;;13.67;70.05
52855;BME280;38719;51.418;7.286;2023-04-28T07:04:55;99301.19;;;13.74;69.90
52855;BME280;38719;51.418;7.286;2023-04-28T07:07:24;99305.78;;;13.72;69.74
52855;BME280;38719;51.418;7.286;2023-04-28T07:09:52;99299.22;;;13.50;69.99
52855;BME280;38719;51.418;7.286;2023-04-28T07:12:21;99292.69;;;13.54;69.69
52855;BME280;38719;51.418;7.286;2023-04-28T07:14:48;99290.91;;;13.68;69.54
52855;BME280;38719;51.418;7.286;2023-04-28T07:17:17;99281.28;;;13.78;69.00
52855;BME280;38719;51.418;7.286;2023-04-28T07:19:44;99281.16;;;13.54;69.02
52855;BME280;38719;51.418;7.286;2023-04-28T07:22:12;99275.72;;;13.81;69.27
52855;BME280;38719;51.418;7.286;2023-04-28T07:24:41;99277.53;;;13.94;69.25
52855;BME280;38719;51.418;7.286;2023-04-28T07:27:08;99277.75;;;14.03;68.72
52855;BME280;38719;51.418;7.286;2023-04-28T07:29:36;99272.81;;;13.84;69.05
52855;BME280;38719;51.418;7.286;2023-04-28T07:32:04;99269.94;;;13.88;69.79
52855;BME280;38719;51.418;7.286;2023-04-28T07:34:34;99279.25;;;13.95;69.72
52855;BME280;38719;51.418;7.286;2023-04-28T07:37:02;99279.69;;;13.89;69.21
52855;BME280;38719;51.418;7.286;2023-04-28T07:39:31;99268.66;;;13.80;69.47
52855;BME280;38719;51.418;7.286;2023-04-28T07:42:01;99276.88;;;14.03;69.77
52855;BME280;38719;51.418;7.286;2023-04-28T07:44:29;99279.69;;;14.01;69.45
52855;BME280;38719;51.418;7.286;2023-04-28T07:46:57;99277.13;;;14.00;69.91
52855;BME280;38719;51.418;7.286;2023-04-28T07:49:25;99283.72;;;14.20;69.44
52855;BME280;38719;51.418;7.286;2023-04-28T07:51:53;99276.94;;;14.40;68.73
52855;BME280;38719;51.418;7.286;2023-04-28T07:54:22;99285.63;;;14.57;68.36
52855;BME280;38719;51.418;7.286;2023-04-28T07:56:49;99284.31;;;14.75;67.56
52855;BME280;38719;51.418;7.286;2023-04-28T07:59:18;99297.78;;;14.87;67.32
52855;BME280;38719;51.418;7.286;2023-04-28T08:01:46;99295.94;;;14.87;67.11
52855;BME280;38719;51.418;7.286;2023-04-28T08:04:13;99284.31;;;14.75;67.12
52855;BME280;38719;51.418;7.286;2023-04-28T08:06:42;99295.94;;;14.87;67.32
52855;BME280;38719;51.418;7.286;2023-04-28T08:09:09;99297.72;;;14.99;66.43
52855;BME280;38719;51.418;7.286;2023-04-28T08:11:37;99299.59;;;15.10;66.62
52855;BME280;38719;51.418;7.286;2023-04-28T08:14:04;99306.06;;;15.08;66.57
52855;BME280;38719;51.418;7.286;2023-04-28T08:16:33;99299.94;;;15.06;66.72
52855;BME280;38719;51.418;7.286;2023-04-28T08:19:03;99298.31;;;15.16;66.73
52855;BME280;38719;51.418;7.286;2023-04-28T08:21:31;99299.59;;;15.10;66.51
52855;BME280;38719;51.418;7.286;2023-04-28T08:23:59;99294.25;;;15.10;66.32
52855;BME280;38719;51.418;7.286;2023-04-28T08:26:27;99295.97;;;15.11;66.57
52855;BME280;38719;51.418;7.286;2023-04-28T08:28:54;99296.81;;;15.36;65.82
52855;BME280;38719;51.418;7.286;2023-04-28T08:31:21;99294.06;;;15.25;65.88
52855;BME280;38719;51.418;7.286;2023-04-28T08:33:50;99295.78;;;15.26;66.23
52855;BME280;38719;51.418;7.286;2023-04-28T08:36:20;99299.47;;;15.12;66.14
52855;BME280;38719;51.418;7.286;2023-04-28T08:38:48;99300.69;;;15.08;66.49
52855;BME280;38719;51.418;7.286;2023-04-28T08:41:16;99292.97;;;15.03;66.59
52855;BME280;38719;51.418;7.286;2023-04-28T08:43:44;99291.69;;;15.09;66.69
52855;BME280;38719;51.418;7.286;2023-04-28T08:46:13;99293.13;;;15.26;66.16
52855;BME280;38719;51.418;7.286;2023-04-28T08:48:42;99292.56;;;15.45;65.62
52855;BME280;38719;51.418;7.286;2023-04-28T08:51:15;99286.22;;;15.46;65.72
52855;BME280;38719;51.418;7.286;2023-04-28T08:53:48;99284.78;;;15.53;65.38
52855;BME280;38719;51.418;7.286;2023-04-28T08:56:37;99279.59;;;15.74;65.00
52855;BME280;38719;51.418;7.286;2023-04-28T08:59:04;99292.06;;;15.75;64.52
52855;BME280;38719;51.418;7.286;2023-04-28T09:01:32;99285.25;;;15.83;64.67
52855;BME280;38719;51.418;7.286;2023-04-28T09:04:01;99290.63;;;15.83;64.72
52855;BME280;38719;51.418;7.286;2023-04-28T09:06:34;99278.50;;;15.77;64.54
52855;BME280;38719;51.418;7.286;2023-04-28T09:09:17;99282.84;;;15.55;65.37
52855;BME280;38719;51.418;7.286;2023-04-28T09:11:55;99288.00;;;15.70;65.27
52855;BME280;38719;51.418;7.286;2023-04-28T09:14:25;99278.84;;;15.72;65.16
52855;BME280;38719;51.418;7.286;2023-04-28T09:16:53;99274.91;;;15.89;64.41
52855;BME280;38719;51.418;7.286;2023-04-28T09:19:21;99263.53;;;15.86;64.56
52855;BME280;38719;51.418;7.286;2023-04-28T09:21:52;99265.81;;;15.79;65.45
52855;BME280;38719;51.418;7.286;2023-04-28T09:24:30;99269.59;;;15.76;65.50
52855;BME280;38719;51.418;7.286;2023-04-28T09:26:58;99267.19;;;15.85;65.44
52855;BME280;38719;51.418;7.286;2023-04-28T09:29:27;99272.50;;;16.09;64.64
52855;BME280;38719;51.418;7.286;2023-04-28T09:32:11;99272.59;;;16.07;64.76
52855;BME280;38719;51.418;7.286;2023-04-28T09:34:42;99271.03;;;16.16;64.85
52855;BME280;38719;51.418;7.286;2023-04-28T09:37:17;99279.44;;;16.34;64.66
52855;BME280;38719;51.418;7.286;2023-04-28T09:39:46;99287.38;;;16.24;64.50
52855;BME280;38719;51.418;7.286;2023-04-28T09:42:30;99276.00;;;16.55;63.71
52855;BME280;38719;51.418;7.286;2023-04-28T09:44:58;99283.59;;;16.61;63.62
52855;BME280;38719;51.418;7.286;2023-04-28T09:47:25;99283.47;;;16.51;63.91
52855;BME280;38719;51.418;7.286;2023-04-28T09:49:53;99283.78;;;16.69;63.23
52855;BME280;38719;51.418;7.286;2023-04-28T09:52:23;99283.53;;;16.84;63.10
52855;BME280;38719;51.418;7.286;2023-04-28T09:54:52;99285.38;;;16.83;63.24
52855;BME280;38719;51.418;7.286;2023-04-28T09:57:20;99281.59;;;16.74;63.37
52855;BME280;38719;51.418;7.286;2023-04-28T09:59:49;99279.91;;;16.62;64.05
52855;BME280;38719;51.418;7.286;2023-04-28T10:02:18;99281.00;;;16.48;64.59
52855;BME280;38719;51.418;7.286;2023-04-28T10:05:07;99283.34;;;16.41;65.37
52855;BME280;38719;51.418;7.286;2023-04-28T10:07:38;99275.88;;;16.68;66.13
52855;BME280;38719;51.418;7.286;2023-04-28T10:10:07;99266.38;;;16.52;67.05
52855;BME280;38719;51.418;7.286;2023-04-28T10:12:34;99265.47;;;16.63;67.47
52855;BME280;38719;51.418;7.286;2023-04-28T10:15:06;99268.88;;;16.76;67.39
52855;BME280;38719;51.418;7.286;2023-04-28T10:17:34;99268.16;;;16.74;67.56
52855;BME280;38719;51.418;7.286;2023-04-28T10:20:04;99263.50;;;16.99;66.39
52855;BME280;38719;51.418;7.286;2023-04-28T10:22:45;99260.41;;;17.04;66.10
52855;BME280;38719;51.418;7.286;2023-04-28T10:25:26;99255.97;;;17.14;65.68
52855;BME280;38719;51.418;7.286;2023-04-28T10:27:56;99259.38;;;17.16;65.22
52855;BME280;38719;51.418;7.286;2023-04-28T10:30:25;99257.56;;;17.17;65.84
52855;BME280;38719;51.418;7.286;2023-04-28T10:33:21;99260.91;;;17.09;66.08
52855;BME280;38719;51.418;7.286;2023-04-28T10:35:49;99258.31;;;17.07;65.94
52855;BME280;38719;51.418;7.286;2023-04-28T10:38:18;99260.81;;;16.99;66.06
52855;BME280;38719;51.418;7.286;2023-04-28T10:40:47;99257.16;;;16.77;66.75
52855;BME280;38719;51.418;7.286;2023-04-28T10:43:34;99260.22;;;16.73;67.14
52855;BME280;38719;51.418;7.286;2023-04-28T10:46:04;99247.63;;;16.73;67.27
52855;BME280;38719;51.418;7.286;2023-04-28T10:48:55;99262.56;;;16.66;67.33
52855;BME280;38719;51.418;7.286;2023-04-28T10:51:29;99258.66;;;16.59;67.67
52855;BME280;38719;51.418;7.286;2023-04-28T10:54:23;99253.41;;;16.57;68.37
52855;BME280;38719;51.418;7.286;2023-04-28T10:57:15;99263.50;;;16.76;67.72
52855;BME280;38719;51.418;7.286;2023-04-28T10:59:44;99266.22;;;16.65;68.75
52855;BME280;38719;51.418;7.286;2023-04-28T11:02:38;99258.09;;;16.21;70.50
52855;BME280;38719;51.418;7.286;2023-04-28T11:05:14;99266.25;;;16.31;70.70
52855;BME280;38719;51.418;7.286;2023-04-28T11:11:16;99255.75;;;16.39;71.13
52855;BME280;38719;51.418;7.286;2023-04-28T11:13:44;99257.47;;;16.18;70.98
52855;BME280;38719;51.418;7.286;2023-04-28T11:16:14;99264.66;;;16.06;71.82
52855;BME280;38719;51.418;7.286;2023-04-28T11:18:54;99265.75;;;16.03;71.73
52855;BME280;38719;51.418;7.286;2023-04-28T11:21:23;99264.53;;;15.96;71.68
52855;BME280;38719;51.418;7.286;2023-04-28T11:23:53;99254.75;;;15.84;71.57
52855;BME280;38719;51.418;7.286;2023-04-28T11:26:22;99260.72;;;15.87;72.21
52855;BME280;38719;51.418;7.286;2023-04-28T11:28:51;99259.06;;;15.98;71.45
52855;BME280;38719;51.418;7.286;2023-04-28T11:31:20;99262.81;;;15.95;72.03
52855;BME280;38719;51.418;7.286;2023-04-28T11:33:52;99260.41;;;15.68;72.70
52855;BME280;38719;51.418;7.286;2023-04-28T11:36:25;99271.91;;;15.70;73.43
52855;BME280;38719;51.418;7.286;2023-04-28T11:38:53;99265.50;;;15.95;72.98
52855;BME280;38719;51.418;7.286;2023-04-28T11:41:24;99271.13;;;15.92;73.36
52855;BME280;38719;51.418;7.286;2023-04-28T11:43:52;99265.25;;;15.87;74.14
52855;BME280;38719;51.418;7.286;2023-04-28T11:46:20;99269.19;;;16.05;73.16
52855;BME280;38719;51.418;7.286;2023-04-28T11:48:59;99266.00;;;16.00;73.44
52855;BME280;38719;51.418;7.286;2023-04-28T11:51:31;99269.53;;;16.12;73.21
52855;BME280;38719;51.418;7.286;2023-04-28T11:53:59;99259.53;;;16.14;73.01
52855;BME280;38719;51.418;7.286;2023-04-28T11:56:29;99264.78;;;16.16;72.50
52855;BME280;38719;51.418;7.286;2023-04-28T11:59:04;99268.97;;;16.31;72.46
52855;BME280;38719;51.418;7.286;2023-04-28T12:01:34;99274.06;;;16.34;72.45
52855;BME280;38719;51.418;7.286;2023-04-28T12:04:03;99267.97;;;16.09;72.52
52855;BME280;38719;51.418;7.286;2023-04-28T12:06:31;99263.69;;;16.18;72.82
52855;BME280;38719;51.418;7.286;2023-04-28T12:08:59;99272.63;;;16.30;72.22
52855;BME280;38719;51.418;7.286;2023-04-28T12:11:31;99263.34;;;16.11;72.55
52855;BME280;38719;51.418;7.286;2023-04-28T12:14:02;99266.72;;;16.14;72.53
52855;BME280;38719;51.418;7.286;2023-04-28T12:16:37;99256.72;;;16.38;72.21
52855;BME280;38719;51.418;7.286;2023-04-28T12:19:09;99260.97;;;16.64;71.66
52855;BME280;38719;51.418;7.286;2023-04-28T12:21:37;99257.53;;;16.84;70.99
52855;BME280;38719;51.418;7.286;2023-04-28T12:24:16;99259.56;;;17.03;69.61
52855;BME280;38719;51.418;7.286;2023-04-28T12:26:46;99255.03;;;17.04;70.23
52855;BME280;38719;51.418;7.286;2023-04-28T12:29:37;99257.41;;;17.18;70.12
52855;BME280;38719;51.418;7.286;2023-04-28T12:32:06;99260.50;;;17.14;69.59
52855;BME280;38719;51.418;7.286;2023-04-28T12:34:34;99267.16;;;16.98;70.84
52855;BME280;38719;51.418;7.286;2023-04-28T12:37:03;99273.13;;;17.02;70.35
52855;BME280;38719;51.418;7.286;2023-04-28T12:39:32;99273.41;;;16.76;71.44
52855;BME280;38719;51.418;7.286;2023-04-28T12:42:04;99266.47;;;16.62;71.41
52855;BME280;38719;51.418;7.286;2023-04-28T12:44:33;99274.97;;;16.90;71.16
52855;BME280;38719;51.418;7.286;2023-04-28T12:47:03;99266.41;;;16.96;70.18
52855;BME280;38719;51.418;7.286;2023-04-28T12:49:31;99273.47;;;17.08;70.54
52855;BME280;38719;51.418;7.286;2023-04-28T12:51:59;99270.03;;;17.06;70.42
52855;BME280;38719;51.418;7.286;2023-04-28T12:54:26;99266.28;;;16.98;70.67
52855;BME280;38719;51.418;7.286;2023-04-28T12:56:54;99264.88;;;17.15;70.21
52855;BME280;38719;51.418;7.286;2023-04-28T12:59:23;99266.31;;;17.30;69.31
52855;BME280;38719;51.418;7.286;2023-04-28T13:01:51;99263.72;;;17.29;70.25
52855;BME280;38719;51.418;7.286;2023-04-28T13:04:18;99255.63;;;17.61;69.02
52855;BME280;38719;51.418;7.286;2023-04-28T13:06:47;99257.66;;;17.48;69.47
52855;BME280;38719;51.418;7.286;2023-04-28T13:09:15;99252.41;;;17.67;69.33
52855;BME280;38719;51.418;7.286;2023-04-28T13:11:42;99245.63;;;18.25;67.06
52855;BME280;38719;51.418;7.286;2023-04-28T13:14:10;99238.66;;;18.63;66.20